createdAt,value
2018-02-23T00:00:11.466Z,99.99
2018-02-23T00:01:21.455Z,99.99
2018-02-23T00:02:31.450Z,99.99
2018-02-23T00:03:41.169Z,99.99
2018-02-23T00:04:50.885Z,99.99
2018-02-23T00:06:00.872Z,99.99
2018-02-23T00:07:10.595Z,99.99
2018-02-23T00:08:20.586Z,99.99
2018-02-23T00:09:30.585Z,99.99
2018-02-23T00:10:40.571Z,99.99
2018-02-23T00:11:50.552Z,99.99
2018-02-23T00:13:00.539Z,99.99
2018-02-23T00:14:10.257Z,99.99
2018-02-23T00:15:20.246Z,99.99
2018-02-23T00:16:30.235Z,99.99
2018-02-23T00:17:40.484Z,99.99
2018-02-23T00:18:50.468Z,99.99
2018-02-23T00:20:00.464Z,99.99
2018-02-23T00:21:09.652Z,99.99
2018-02-23T00:22:19.637Z,99.99
2018-02-23T00:23:29.622Z,99.99
2018-02-23T00:24:39.607Z,99.99
2018-02-23T00:25:49.059Z,99.99
2018-02-23T00:26:59.046Z,99.99
2018-02-23T00:28:08.766Z,99.99
2018-02-23T00:29:18.758Z,99.99
2018-02-23T00:30:28.756Z,99.99
2018-02-23T00:31:38.744Z,99.99
2018-02-23T00:32:48.730Z,99.99
2018-02-23T00:33:58.722Z,99.99
2018-02-23T00:35:08.443Z,99.99
2018-02-23T00:36:18.431Z,99.99
2018-02-23T00:37:28.150Z,99.99
2018-02-23T00:38:38.350Z,99.99
2018-02-23T00:39:48.068Z,99.99
2018-02-23T00:40:58.066Z,99.99
2018-02-23T00:42:07.799Z,99.99
2018-02-23T00:43:17.785Z,99.99
2018-02-23T00:44:27.786Z,99.99
2018-02-23T00:45:37.511Z,99.99
2018-02-23T00:46:47.231Z,99.99
2018-02-23T00:47:57.222Z,99.99
2018-02-23T00:49:07.209Z,99.99
2018-02-23T00:50:17.198Z,99.99
2018-02-23T00:51:27.192Z,99.99
2018-02-23T00:52:37.184Z,99.99
2018-02-23T00:53:46.913Z,99.99
2018-02-23T00:54:56.906Z,99.99
2018-02-23T00:56:06.904Z,99.99
2018-02-23T00:57:16.892Z,99.99
2018-02-23T00:58:26.612Z,99.99
2018-02-23T00:59:36.615Z,99.99
2018-02-23T01:00:46.351Z,99.99
2018-02-23T01:01:55.804Z,99.99
2018-02-23T01:03:05.529Z,99.99
2018-02-23T01:04:15.515Z,99.99
2018-02-23T01:05:25.509Z,99.99
2018-02-23T01:06:35.620Z,99.99
2018-02-23T01:07:45.607Z,99.99
2018-02-23T01:08:55.599Z,99.99
2018-02-23T01:10:05.323Z,99.99
2018-02-23T01:11:15.317Z,99.99
2018-02-23T01:12:25.302Z,99.99
2018-02-23T01:13:35.288Z,99.99
2018-02-23T01:14:45.281Z,99.99
2018-02-23T01:15:55.274Z,99.99
2018-02-23T01:17:05.012Z,99.99
2018-02-23T01:18:15.005Z,99.99
2018-02-23T01:19:24.832Z,99.99
2018-02-23T01:20:34.825Z,99.99
2018-02-23T01:21:44.558Z,99.99
2018-02-23T01:22:54.022Z,99.99
2018-02-23T01:24:03.738Z,99.99
2018-02-23T01:25:13.733Z,99.99
2018-02-23T01:26:23.725Z,99.99
2018-02-23T01:27:33.716Z,99.99
2018-02-23T01:28:43.705Z,99.99
2018-02-23T01:29:53.421Z,99.99
2018-02-23T01:31:03.413Z,99.99
2018-02-23T01:32:13.141Z,99.99
2018-02-23T01:33:23.142Z,99.99
2018-02-23T01:34:33.131Z,99.99
2018-02-23T01:35:43.235Z,99.99
2018-02-23T01:36:52.986Z,99.99
2018-02-23T01:38:02.977Z,99.99
2018-02-23T01:39:12.971Z,99.99
2018-02-23T01:40:22.696Z,99.99
2018-02-23T01:41:32.688Z,99.99
2018-02-23T01:42:42.146Z,99.99
2018-02-23T01:43:52.131Z,99.99
2018-02-23T01:45:02.120Z,99.99
2018-02-23T01:46:11.840Z,99.99
2018-02-23T01:47:21.832Z,99.99
2018-02-23T01:48:31.929Z,99.99
2018-02-23T01:49:41.648Z,99.99
2018-02-23T01:50:51.639Z,99.99
2018-02-23T01:52:01.628Z,99.99
2018-02-23T01:53:11.615Z,99.99
2018-02-23T01:54:20.802Z,99.99
2018-02-23T01:55:30.784Z,99.99
2018-02-23T01:56:40.766Z,99.99
2018-02-23T01:57:50.493Z,99.99
2018-02-23T01:59:00.481Z,99.99
2018-02-23T02:00:10.208Z,99.99
2018-02-23T02:01:19.937Z,99.99
2018-02-23T02:02:29.937Z,99.99
2018-02-23T02:03:39.664Z,99.99
2018-02-23T02:04:49.396Z,99.99
2018-02-23T02:05:59.387Z,99.99
2018-02-23T02:07:09.381Z,99.99
2018-02-23T02:08:19.368Z,99.99
2018-02-23T02:09:29.407Z,99.99
2018-02-23T02:10:39.136Z,99.99
2018-02-23T02:11:48.858Z,99.99
2018-02-23T02:12:58.579Z,99.99
2018-02-23T02:14:08.315Z,99.99
2018-02-23T02:15:18.321Z,99.99
2018-02-23T02:16:28.310Z,99.99
2018-02-23T02:17:38.406Z,99.99
2018-02-23T02:18:48.134Z,99.99
2018-02-23T02:19:58.119Z,99.99
2018-02-23T02:21:07.843Z,99.99
2018-02-23T02:22:17.834Z,99.99
2018-02-23T02:23:27.824Z,99.99
2018-02-23T02:24:37.274Z,99.99
2018-02-23T02:25:46.752Z,99.99
2018-02-23T02:26:56.740Z,99.99
2018-02-23T02:28:06.735Z,99.99
2018-02-23T02:29:16.724Z,99.99
2018-02-23T02:30:26.455Z,99.99
2018-02-23T02:31:36.191Z,99.99
2018-02-23T02:32:46.184Z,99.99
2018-02-23T02:33:56.174Z,99.99
2018-02-23T02:35:06.228Z,99.99
2018-02-23T02:36:16.223Z,99.99
2018-02-23T02:37:26.235Z,99.99
2018-02-23T02:38:35.960Z,99.99
2018-02-23T02:39:45.967Z,99.99
2018-02-23T02:40:55.693Z,99.99
2018-02-23T02:42:05.694Z,99.99
2018-02-23T02:43:15.688Z,99.99
2018-02-23T02:44:25.685Z,99.99
2018-02-23T02:45:35.741Z,99.99
2018-02-23T02:46:45.740Z,99.99
2018-02-23T02:47:55.475Z,99.99
2018-02-23T02:49:05.199Z,99.99
2018-02-23T02:50:14.940Z,99.99
2018-02-23T02:51:24.937Z,99.99
2018-02-23T02:52:34.671Z,99.99
2018-02-23T02:53:44.683Z,99.99
2018-02-23T02:54:54.688Z,99.99
2018-02-23T02:56:04.691Z,99.99
2018-02-23T02:57:14.712Z,99.99
2018-02-23T02:58:24.711Z,99.99
2018-02-23T02:59:34.768Z,99.99
2018-02-23T03:00:44.775Z,99.99
2018-02-23T03:01:54.775Z,99.99
2018-02-23T03:03:04.804Z,99.99
2018-02-23T03:04:14.813Z,99.99
2018-02-23T03:05:24.269Z,99.99
2018-02-23T03:06:34.004Z,99.99
2018-02-23T03:07:44.009Z,99.99
2018-02-23T03:08:53.741Z,99.99
2018-02-23T03:10:03.469Z,99.99
2018-02-23T03:11:12.930Z,99.99
2018-02-23T03:12:22.923Z,99.99
2018-02-23T03:13:32.914Z,99.99
2018-02-23T03:14:42.905Z,99.99
2018-02-23T03:15:52.897Z,99.99
2018-02-23T03:17:02.896Z,99.99
2018-02-23T03:18:12.884Z,99.99
2018-02-23T03:19:22.613Z,99.99
2018-02-23T03:20:32.340Z,99.99
2018-02-23T03:21:42.067Z,99.99
2018-02-23T03:22:52.056Z,99.99
2018-02-23T03:24:02.047Z,99.99
2018-02-23T03:25:11.506Z,99.99
2018-02-23T03:26:21.228Z,99.99
2018-02-23T03:27:31.265Z,99.99
2018-02-23T03:28:41.265Z,99.99
2018-02-23T03:29:50.995Z,99.99
2018-02-23T03:31:00.992Z,99.99
2018-02-23T03:32:11.006Z,99.99
2018-02-23T03:33:20.986Z,99.99
2018-02-23T03:34:30.978Z,99.99
2018-02-23T03:35:40.966Z,99.99
2018-02-23T03:36:50.955Z,99.99
2018-02-23T03:38:00.943Z,99.99
2018-02-23T03:39:10.675Z,99.99
2018-02-23T03:40:20.672Z,99.99
2018-02-23T03:41:30.663Z,99.99
2018-02-23T03:42:40.388Z,99.99
2018-02-23T03:43:50.378Z,99.99
2018-02-23T03:45:00.368Z,99.99
2018-02-23T03:46:10.359Z,99.99
2018-02-23T03:47:20.345Z,99.99
2018-02-23T03:48:30.066Z,99.99
2018-02-23T03:49:40.058Z,99.99
2018-02-23T03:50:49.785Z,99.99
2018-02-23T03:51:59.780Z,99.99
2018-02-23T03:53:09.501Z,99.99
2018-02-23T03:54:19.219Z,99.99
2018-02-23T03:55:29.214Z,99.99
2018-02-23T03:56:39.244Z,99.99
2018-02-23T03:57:49.256Z,99.99
2018-02-23T03:58:59.244Z,99.99
2018-02-23T04:00:09.244Z,99.99
2018-02-23T04:04:29.608Z,99.99
2018-02-23T04:05:39.636Z,99.99
2018-02-23T04:06:49.629Z,99.99
2018-02-23T04:07:59.355Z,99.99
2018-02-23T04:09:09.350Z,99.99
2018-02-23T04:10:19.344Z,99.99
2018-02-23T04:11:29.381Z,99.99
2018-02-23T04:12:39.158Z,99.99
2018-02-23T04:13:48.879Z,99.99
2018-02-23T04:14:58.599Z,99.99
2018-02-23T04:16:08.594Z,99.99
2018-02-23T04:17:18.343Z,99.99
2018-02-23T04:18:28.069Z,99.99
2018-02-23T04:19:38.054Z,99.99
2018-02-23T04:20:47.779Z,99.99
2018-02-23T04:21:57.770Z,99.99
2018-02-23T04:23:07.494Z,99.99
2018-02-23T04:24:17.477Z,99.99
2018-02-23T04:25:27.198Z,99.99
2018-02-23T04:26:37.220Z,99.99
2018-02-23T04:27:46.952Z,99.99
2018-02-23T04:28:56.946Z,99.99
2018-02-23T04:30:06.943Z,99.99
2018-02-23T04:31:16.931Z,99.99
2018-02-23T04:32:26.661Z,99.99
2018-02-23T04:33:36.649Z,99.99
2018-02-23T04:34:46.638Z,99.99
2018-02-23T04:35:56.626Z,99.99
2018-02-23T04:37:06.082Z,99.99
2018-02-23T04:38:16.066Z,99.99
2018-02-23T04:39:26.070Z,99.99
2018-02-23T04:40:35.886Z,99.99
2018-02-23T04:41:45.288Z,99.99
2018-02-23T04:42:55.273Z,99.99
2018-02-23T04:44:05.263Z,99.99
2018-02-23T04:45:15.249Z,99.99
2018-02-23T04:46:24.971Z,99.99
2018-02-23T04:47:34.741Z,99.99
2018-02-23T04:48:44.466Z,99.99
2018-02-23T04:49:54.461Z,99.99
2018-02-23T04:51:04.455Z,99.99
2018-02-23T04:52:14.443Z,99.99
2018-02-23T04:53:24.435Z,99.99
2018-02-23T04:54:34.428Z,99.99
2018-02-23T04:55:44.250Z,99.99
2018-02-23T04:56:54.234Z,99.99
2018-02-23T04:58:03.965Z,99.99
2018-02-23T04:59:13.946Z,99.99
2018-02-23T05:00:23.931Z,99.99
2018-02-23T05:01:33.975Z,99.99
2018-02-23T05:02:43.698Z,99.99
2018-02-23T05:03:53.695Z,99.99
2018-02-23T05:05:03.682Z,99.99
2018-02-23T05:06:13.138Z,99.99
2018-02-23T05:07:23.126Z,99.99
2018-02-23T05:08:33.120Z,99.99
2018-02-23T05:09:43.109Z,99.99
2018-02-23T05:10:53.168Z,99.99
2018-02-23T05:12:02.900Z,99.99
2018-02-23T05:13:12.724Z,99.99
2018-02-23T05:14:22.716Z,99.99
2018-02-23T05:15:32.177Z,99.99
2018-02-23T05:16:41.903Z,99.99
2018-02-23T05:17:51.628Z,99.99
2018-02-23T05:19:01.929Z,99.99
2018-02-23T05:20:11.924Z,99.99
2018-02-23T05:21:21.377Z,99.99
2018-02-23T05:22:31.367Z,99.99
2018-02-23T05:23:41.363Z,99.99
2018-02-23T05:24:51.365Z,99.99
2018-02-23T05:26:00.818Z,99.99
2018-02-23T05:27:10.544Z,99.99
2018-02-23T05:28:20.267Z,99.99
2018-02-23T05:29:29.993Z,99.99
2018-02-23T05:30:39.982Z,99.99
2018-02-23T05:31:49.969Z,99.99
2018-02-23T05:32:59.691Z,99.99
2018-02-23T05:34:09.687Z,99.99
2018-02-23T05:35:19.407Z,99.99
2018-02-23T05:36:29.228Z,99.99
2018-02-23T05:37:39.219Z,99.99
2018-02-23T05:38:49.209Z,99.99
2018-02-23T05:39:59.201Z,99.99
2018-02-23T05:41:08.662Z,99.99
2018-02-23T05:42:18.646Z,99.99
2018-02-23T05:43:28.639Z,99.99
2018-02-23T05:44:38.631Z,99.99
2018-02-23T05:45:48.621Z,99.99
2018-02-23T05:46:58.608Z,99.99
2018-02-23T05:48:08.598Z,99.99
2018-02-23T05:49:18.585Z,99.99
2018-02-23T05:50:28.576Z,99.99
2018-02-23T05:51:38.562Z,99.99
2018-02-23T05:52:48.019Z,99.99
2018-02-23T05:53:58.015Z,99.99
2018-02-23T05:55:07.738Z,99.99
2018-02-23T05:56:17.460Z,99.99
2018-02-23T05:57:27.453Z,99.99
2018-02-23T05:58:37.179Z,99.99
2018-02-23T05:59:46.901Z,99.99
2018-02-23T06:00:56.626Z,99.99
2018-02-23T06:02:06.082Z,99.99
2018-02-23T06:03:16.069Z,99.99
2018-02-23T06:04:25.792Z,99.99
2018-02-23T06:05:35.799Z,99.99
2018-02-23T06:06:45.522Z,99.99
2018-02-23T06:07:55.260Z,99.99
2018-02-23T06:09:05.253Z,99.99
2018-02-23T06:10:15.242Z,99.99
2018-02-23T06:11:25.246Z,99.99
2018-02-23T06:12:35.240Z,99.99
2018-02-23T06:13:45.233Z,99.99
2018-02-23T06:14:55.257Z,99.99
2018-02-23T06:16:04.981Z,99.99
2018-02-23T06:17:14.983Z,99.99
2018-02-23T06:18:24.975Z,99.99
2018-02-23T06:19:34.968Z,99.99
2018-02-23T06:20:44.965Z,99.99
2018-02-23T06:21:54.953Z,99.99
2018-02-23T06:23:04.670Z,99.99
2018-02-23T06:24:14.383Z,99.99
2018-02-23T06:25:24.384Z,99.99
2018-02-23T06:26:34.379Z,99.99
2018-02-23T06:27:44.366Z,99.99
2018-02-23T06:28:54.377Z,99.99
2018-02-23T06:30:04.102Z,99.99
2018-02-23T06:31:13.828Z,99.99
2018-02-23T06:32:23.281Z,99.99
2018-02-23T06:33:33.262Z,99.99
2018-02-23T06:34:43.254Z,99.99
2018-02-23T06:35:52.975Z,99.99
2018-02-23T06:37:02.969Z,99.99
2018-02-23T06:38:12.956Z,99.99
2018-02-23T06:39:22.948Z,99.99
2018-02-23T06:40:31.870Z,99.99
2018-02-23T06:41:41.350Z,99.99
2018-02-23T06:42:51.351Z,99.99
2018-02-23T06:44:01.335Z,99.99
2018-02-23T06:45:11.322Z,99.99
2018-02-23T06:46:21.038Z,99.99
2018-02-23T06:47:30.762Z,99.99
2018-02-23T06:48:40.485Z,99.99
2018-02-23T06:49:50.521Z,99.99
2018-02-23T06:51:00.513Z,99.99
2018-02-23T06:52:10.230Z,99.99
2018-02-23T06:53:20.232Z,99.99
2018-02-23T06:54:30.232Z,99.99
2018-02-23T06:55:40.227Z,99.99
2018-02-23T06:56:49.946Z,99.99
2018-02-23T06:57:59.943Z,99.99
2018-02-23T06:59:09.131Z,99.99
2018-02-23T07:00:19.206Z,99.99
2018-02-23T07:01:29.214Z,99.99
2018-02-23T07:02:38.933Z,99.99
2018-02-23T07:03:48.992Z,99.99
2018-02-23T07:04:58.719Z,99.99
2018-02-23T07:06:08.461Z,99.99
2018-02-23T07:07:18.449Z,99.99
2018-02-23T07:08:28.436Z,99.99
2018-02-23T07:09:38.424Z,99.99
2018-02-23T07:10:48.145Z,99.99
2018-02-23T07:11:57.738Z,99.99
2018-02-23T07:13:07.461Z,99.99
2018-02-23T07:14:17.451Z,99.99
2018-02-23T07:15:27.187Z,99.99
2018-02-23T07:16:36.910Z,99.99
2018-02-23T07:17:46.624Z,99.99
2018-02-23T07:18:56.349Z,99.99
2018-02-23T07:20:06.337Z,99.99
2018-02-23T07:21:15.524Z,99.99
2018-02-23T07:22:25.254Z,99.99
2018-02-23T07:23:34.983Z,99.99
2018-02-23T07:24:44.965Z,99.99
2018-02-23T07:25:54.957Z,99.99
2018-02-23T07:27:04.943Z,99.99
2018-02-23T07:28:14.930Z,99.99
2018-02-23T07:29:24.386Z,99.99
2018-02-23T07:30:34.115Z,99.99
2018-02-23T07:31:44.100Z,99.99
2018-02-23T07:32:54.125Z,99.99
2018-02-23T07:34:04.115Z,99.99
2018-02-23T07:35:14.115Z,99.99
2018-02-23T07:36:24.099Z,99.99
2018-02-23T07:37:34.100Z,99.99
2018-02-23T07:38:43.832Z,99.99
2018-02-23T07:39:53.826Z,99.99
2018-02-23T07:41:03.543Z,99.99
2018-02-23T07:42:13.532Z,99.99
2018-02-23T07:43:23.259Z,99.99
2018-02-23T07:44:33.248Z,99.99
2018-02-23T07:45:43.247Z,99.99
2018-02-23T07:46:52.972Z,99.99
2018-02-23T07:48:02.976Z,99.99
2018-02-23T07:49:12.969Z,99.99
2018-02-23T07:50:23.169Z,99.99
2018-02-23T07:51:32.912Z,99.99
2018-02-23T07:52:42.917Z,99.99
2018-02-23T07:53:52.378Z,99.99
2018-02-23T07:55:02.369Z,99.99
2018-02-23T07:56:12.095Z,99.99
2018-02-23T07:57:21.822Z,99.99
2018-02-23T07:58:31.548Z,99.99
2018-02-23T07:59:41.536Z,99.99
2018-02-23T08:00:51.268Z,99.99
2018-02-23T08:02:00.994Z,99.99
2018-02-23T08:03:10.181Z,99.99
2018-02-23T08:04:19.919Z,99.99
2018-02-23T08:05:29.641Z,99.99
2018-02-23T08:06:39.631Z,99.99
2018-02-23T08:07:49.080Z,99.99
2018-02-23T08:08:59.212Z,99.99
2018-02-23T08:10:08.978Z,99.99
2018-02-23T08:11:18.971Z,99.99
2018-02-23T08:12:28.964Z,99.99
2018-02-23T08:13:38.785Z,99.99
2018-02-23T08:14:48.768Z,99.99
2018-02-23T08:15:58.498Z,99.99
2018-02-23T08:17:08.496Z,99.99
2018-02-23T08:18:18.488Z,99.99
2018-02-23T08:19:28.477Z,99.99
2018-02-23T08:20:38.199Z,99.99
2018-02-23T08:21:48.194Z,99.99
2018-02-23T08:22:58.180Z,99.99
2018-02-23T08:24:07.638Z,99.99
2018-02-23T08:25:17.627Z,99.99
2018-02-23T08:26:27.680Z,99.99
2018-02-23T08:27:37.470Z,99.99
2018-02-23T08:28:47.470Z,99.99
2018-02-23T08:29:57.468Z,99.99
2018-02-23T08:31:07.469Z,99.99
2018-02-23T08:32:17.189Z,99.99
2018-02-23T08:33:27.172Z,99.99
2018-02-23T08:34:37.160Z,99.99
2018-02-23T08:35:46.876Z,99.99
2018-02-23T08:36:56.866Z,99.99
2018-02-23T08:38:06.591Z,99.99
2018-02-23T08:39:16.314Z,99.99
2018-02-23T08:40:26.303Z,99.99
2018-02-23T08:41:36.293Z,99.99
2018-02-23T08:42:46.299Z,99.99
2018-02-23T08:43:56.027Z,99.99
2018-02-23T08:45:05.485Z,99.99
2018-02-23T08:46:15.494Z,99.99
2018-02-23T08:47:25.225Z,99.99
2018-02-23T08:48:35.219Z,99.99
2018-02-23T08:49:45.208Z,99.99
2018-02-23T08:50:54.668Z,99.99
2018-02-23T08:52:04.131Z,99.99
2018-02-23T08:53:13.856Z,99.99
2018-02-23T08:54:23.313Z,99.99
2018-02-23T08:55:33.300Z,99.99
2018-02-23T08:56:43.296Z,99.99
2018-02-23T08:57:52.754Z,99.99
2018-02-23T08:59:01.959Z,99.99
2018-02-23T09:00:12.054Z,99.99
2018-02-23T09:01:21.857Z,99.99
2018-02-23T09:02:31.931Z,99.99
2018-02-23T09:03:41.661Z,99.99
2018-02-23T09:04:51.648Z,99.99
2018-02-23T09:06:01.374Z,99.99
2018-02-23T09:07:10.566Z,99.99
2018-02-23T09:08:20.587Z,99.99
2018-02-23T09:09:30.318Z,99.99
2018-02-23T09:10:40.312Z,99.99
2018-02-23T09:11:49.775Z,99.99
2018-02-23T09:12:59.768Z,99.99
2018-02-23T09:14:09.761Z,99.99
2018-02-23T09:15:19.755Z,99.99
2018-02-23T09:16:29.218Z,99.99
2018-02-23T09:17:39.044Z,99.99
2018-02-23T09:18:48.820Z,99.99
2018-02-23T09:19:58.818Z,99.99
2018-02-23T09:21:08.011Z,99.99
2018-02-23T09:22:18.007Z,99.99
2018-02-23T09:23:27.744Z,99.99
2018-02-23T09:24:37.832Z,99.99
2018-02-23T09:25:47.605Z,99.99
2018-02-23T09:26:57.596Z,99.99
2018-02-23T09:28:07.591Z,99.99
2018-02-23T09:29:17.370Z,99.99
2018-02-23T09:30:27.095Z,99.99
2018-02-23T09:31:37.091Z,99.99
2018-02-23T09:32:46.556Z,99.99
2018-02-23T09:33:56.280Z,99.99
2018-02-23T09:35:06.276Z,99.99
2018-02-23T09:36:16.270Z,99.99
2018-02-23T09:37:26.259Z,99.99
2018-02-23T09:38:36.259Z,99.99
2018-02-23T09:39:45.731Z,99.99
2018-02-23T09:40:55.724Z,99.99
2018-02-23T09:42:05.456Z,99.99
2018-02-23T09:43:15.188Z,99.99
2018-02-23T09:44:25.183Z,99.99
2018-02-23T09:45:35.180Z,99.99
2018-02-23T09:46:44.910Z,99.99
2018-02-23T09:47:54.642Z,99.99
2018-02-23T09:49:04.374Z,99.99
2018-02-23T09:50:14.302Z,99.99
2018-02-23T09:51:24.212Z,99.99
2018-02-23T09:52:34.212Z,99.89
2018-02-23T09:53:44.207Z,99.61
2018-02-23T09:54:53.672Z,99.33
2018-02-23T09:56:03.404Z,98
2018-02-23T09:57:13.393Z,96.78
2018-02-23T09:58:23.383Z,95.17
2018-02-23T09:59:33.380Z,95.45
2018-02-23T10:00:43.104Z,95.83
2018-02-23T10:01:53.103Z,94.89
2018-02-23T10:03:02.829Z,94.98
2018-02-23T10:04:12.825Z,94.79
2018-02-23T10:05:22.563Z,94.98
2018-02-23T10:06:32.562Z,95.07
2018-02-23T10:07:42.024Z,94.22
2018-02-23T10:08:52.030Z,93.94
2018-02-23T10:10:02.026Z,93.56
2018-02-23T10:11:12.025Z,93.28
2018-02-23T10:12:21.758Z,92.52
2018-02-23T10:13:31.757Z,92.24
2018-02-23T10:14:41.489Z,92.43
2018-02-23T10:15:51.214Z,90.73
2018-02-23T10:17:01.207Z,90.35
2018-02-23T10:18:10.933Z,89.97
2018-02-23T10:19:20.922Z,91.01
2018-02-23T10:20:30.924Z,91.2
2018-02-23T10:21:40.921Z,89.87
2018-02-23T10:22:50.922Z,90.54
2018-02-23T10:24:00.935Z,90.54
2018-02-23T10:25:10.126Z,90.82
2018-02-23T10:26:20.124Z,90.44
2018-02-23T10:27:30.127Z,88.55
2018-02-23T10:28:39.862Z,88.36
2018-02-23T10:29:49.322Z,89.4
2018-02-23T10:30:59.313Z,90.35
2018-02-23T10:32:08.509Z,88.55
2018-02-23T10:33:18.341Z,86.94
2018-02-23T10:34:28.342Z,86.19
2018-02-23T10:35:38.339Z,87.04
2018-02-23T10:36:48.331Z,89.22
2018-02-23T10:37:58.328Z,89.78
2018-02-23T10:39:08.392Z,90.16
2018-02-23T10:40:18.445Z,90.44
2018-02-23T10:41:28.488Z,90.16
2018-02-23T10:42:37.946Z,89.5
2018-02-23T10:43:47.943Z,88.08
2018-02-23T10:44:57.668Z,88.55
2018-02-23T10:46:07.397Z,89.4
2018-02-23T10:47:17.189Z,89.87
2018-02-23T10:48:27.244Z,89.22
2018-02-23T10:49:36.704Z,90.06
2018-02-23T10:50:46.425Z,89.5
2018-02-23T10:51:56.164Z,88.5
2018-02-23T10:53:06.161Z,87.51
2018-02-23T10:54:15.892Z,86.94
2018-02-23T10:55:25.618Z,86.71
2018-02-23T10:56:35.618Z,86.71
2018-02-23T10:57:45.402Z,86.99
2018-02-23T10:58:55.480Z,87.08
2018-02-23T11:00:05.479Z,86.71
2018-02-23T11:01:14.947Z,85.85
2018-02-23T11:02:24.488Z,86.33
2018-02-23T11:03:34.219Z,84.91
2018-02-23T11:04:43.943Z,85.28
2018-02-23T11:05:53.937Z,85
2018-02-23T11:07:03.133Z,85.19
2018-02-23T11:08:13.132Z,85.76
2018-02-23T11:09:22.857Z,85.24
2018-02-23T11:10:32.585Z,85.99
2018-02-23T11:11:41.515Z,85.24
2018-02-23T11:12:51.511Z,85.8
2018-02-23T11:14:01.240Z,84.95
2018-02-23T11:15:11.238Z,85.05
2018-02-23T11:16:20.971Z,86.04
2018-02-23T11:17:30.959Z,85.57
2018-02-23T11:18:40.990Z,84.81
2018-02-23T11:19:51.106Z,84.56
2018-02-23T11:21:00.845Z,82.67
2018-02-23T11:22:10.883Z,83.05
2018-02-23T11:23:20.643Z,82.81
2018-02-23T11:24:30.658Z,82.52
2018-02-23T11:25:40.431Z,81.33
2018-02-23T11:26:50.433Z,81.81
2018-02-23T11:28:00.166Z,81.47
2018-02-23T11:29:09.636Z,80.04
2018-02-23T11:30:19.647Z,79.47
2018-02-23T11:31:29.705Z,78.85
2018-02-23T11:32:39.175Z,77.52
2018-02-23T11:33:48.911Z,78
2018-02-23T11:34:58.648Z,77.43
2018-02-23T11:36:08.652Z,77.56
2018-02-23T11:37:18.230Z,77.37
2018-02-23T11:38:27.964Z,76.23
2018-02-23T11:39:37.971Z,75
2018-02-23T11:40:47.977Z,75.04
2018-02-23T11:41:57.991Z,75.04
2018-02-23T11:43:07.727Z,75.7
2018-02-23T11:44:17.461Z,75.13
2018-02-23T11:45:27.465Z,74.69
2018-02-23T11:46:37.482Z,73.46
2018-02-23T11:47:46.949Z,73.65
2018-02-23T11:48:56.957Z,74.31
2018-02-23T11:50:06.699Z,74.12
2018-02-23T11:51:16.716Z,73.18
2018-02-23T11:52:26.718Z,73.59
2018-02-23T11:53:36.457Z,72.92
2018-02-23T11:54:46.462Z,72.74
2018-02-23T11:55:56.468Z,72.49
2018-02-23T11:57:06.212Z,71.34
2018-02-23T11:58:16.221Z,71.15
2018-02-23T11:59:26.230Z,71.91
2018-02-23T12:00:35.966Z,72.24
2018-02-23T12:01:45.711Z,72.42
2018-02-23T12:02:55.446Z,71.8
2018-02-23T12:04:05.466Z,71.13
2018-02-23T12:05:15.477Z,69.17
2018-02-23T12:06:24.953Z,69.89
2018-02-23T12:07:34.707Z,69.64
2018-02-23T12:08:44.447Z,69.17
2018-02-23T12:09:54.460Z,67
2018-02-23T12:11:04.476Z,66.44
2018-02-23T12:12:14.220Z,65.77
2018-02-23T12:13:23.962Z,67.2
2018-02-23T12:14:33.972Z,66.82
2018-02-23T12:15:43.980Z,66.24
2018-02-23T12:16:54.131Z,65.99
2018-02-23T12:18:03.608Z,65.61
2018-02-23T12:19:13.348Z,65.61
2018-02-23T12:20:23.356Z,64.97
2018-02-23T12:21:33.374Z,64.12
2018-02-23T12:22:43.113Z,61.83
2018-02-23T12:23:53.123Z,62.3
2018-02-23T12:25:02.868Z,61.63
2018-02-23T12:26:12.612Z,62.88
2018-02-23T12:27:22.624Z,63.39
2018-02-23T12:28:32.638Z,63.48
2018-02-23T12:29:42.382Z,63.48
2018-02-23T12:30:52.411Z,61.41
2018-02-23T12:32:02.426Z,59.09
2018-02-23T12:33:12.188Z,57.65
2018-02-23T12:34:22.223Z,57.24
2018-02-23T12:35:32.012Z,57.6
2018-02-23T12:36:41.808Z,57.57
2018-02-23T12:37:51.854Z,57.48
2018-02-23T12:39:01.876Z,57.92
2018-02-23T12:40:11.904Z,57.26
2018-02-23T12:41:21.679Z,57.42
2018-02-23T12:42:31.174Z,57.51
2018-02-23T12:43:41.196Z,60.18
2018-02-23T12:44:51.214Z,60.46
2018-02-23T12:46:00.966Z,62.75
2018-02-23T12:47:10.993Z,63.48
2018-02-23T12:48:21.009Z,61.6
2018-02-23T12:49:31.029Z,57.22
2018-02-23T12:50:41.050Z,56.26
2018-02-23T12:51:51.076Z,55.76
2018-02-23T12:53:01.101Z,55.38
2018-02-23T12:54:11.192Z,55.26
2018-02-23T12:55:21.214Z,54.88
2018-02-23T12:56:31.240Z,55.44
2018-02-23T12:57:41.262Z,56.11
2018-02-23T12:58:51.023Z,56.4
2018-02-23T13:00:01.043Z,57.16
2018-02-23T13:01:10.798Z,56.97
2018-02-23T13:02:20.828Z,57.67
2018-02-23T13:03:31.020Z,58.79
2018-02-23T13:04:41.273Z,59.55
2018-02-23T13:05:51.027Z,59.9
2018-02-23T13:07:01.060Z,60.57
2018-02-23T13:08:11.085Z,61.04
2018-02-23T13:09:21.109Z,61.61
2018-02-23T13:10:31.227Z,61.42
2018-02-23T13:11:41.254Z,61.1
2018-02-23T13:12:51.004Z,62.05
2018-02-23T13:14:00.762Z,62.91
2018-02-23T13:15:10.516Z,63.26
2018-02-23T13:16:20.535Z,62.97
2018-02-23T13:17:30.324Z,63.92
2018-02-23T13:18:40.077Z,63.83
2018-02-23T13:19:50.093Z,64.4
2018-02-23T13:21:00.107Z,64.65
2018-02-23T13:22:10.080Z,65.79
2018-02-23T13:23:19.366Z,66.36
2018-02-23T13:24:29.383Z,65.44
2018-02-23T13:25:39.130Z,64.78
2018-02-23T13:26:49.138Z,64.59
2018-02-23T13:27:59.153Z,64.49
2018-02-23T13:29:09.176Z,64.21
2018-02-23T13:30:19.189Z,63.54
2018-02-23T13:31:28.933Z,63.7
2018-02-23T13:32:38.937Z,63.42
2018-02-23T13:33:48.688Z,63.79
2018-02-23T13:34:58.700Z,64.75
2018-02-23T13:36:08.713Z,65.5
2018-02-23T13:37:18.459Z,66.27
2018-02-23T13:38:28.478Z,64.94
2018-02-23T13:39:38.212Z,64.75
2018-02-23T13:40:48.216Z,65
2018-02-23T13:41:57.962Z,64.9
2018-02-23T13:43:07.965Z,65.19
2018-02-23T13:44:17.440Z,65.63
2018-02-23T13:45:27.286Z,66.2
2018-02-23T13:46:37.020Z,66.77
2018-02-23T13:47:46.756Z,66.86
2018-02-23T13:48:56.770Z,67.21
2018-02-23T13:50:06.775Z,67.58
2018-02-23T13:51:16.512Z,67.77
2018-02-23T13:52:26.520Z,68.15
2018-02-23T13:53:36.258Z,68.44
2018-02-23T13:54:45.994Z,69.01
2018-02-23T13:55:55.729Z,69.2
2018-02-23T13:57:05.844Z,69.01
2018-02-23T13:58:15.856Z,69.01
2018-02-23T13:59:25.861Z,69.2
2018-02-23T14:00:35.875Z,68.91
2018-02-23T14:01:45.883Z,68.73
2018-02-23T14:02:55.881Z,68.82
2018-02-23T14:04:05.618Z,68.82
2018-02-23T14:05:15.375Z,68.98
2018-02-23T14:06:25.375Z,69.35
2018-02-23T14:07:35.103Z,68.98
2018-02-23T14:08:45.101Z,69.07
2018-02-23T14:09:55.106Z,70.11
2018-02-23T14:11:04.864Z,71.4
2018-02-23T14:12:14.866Z,73.01
2018-02-23T14:13:24.607Z,73.86
2018-02-23T14:14:34.613Z,74.3
2018-02-23T14:15:44.350Z,75.53
2018-02-23T14:16:54.348Z,77.39
2018-02-23T14:18:04.100Z,78.71
2018-02-23T14:19:14.100Z,79.47
2018-02-23T14:20:23.835Z,80.51
2018-02-23T14:21:33.838Z,81.88
2018-02-23T14:22:43.843Z,81.98
2018-02-23T14:23:53.842Z,81.51
2018-02-23T14:25:03.846Z,81.7
2018-02-23T14:26:13.583Z,81.64
2018-02-23T14:27:23.579Z,82.17
2018-02-23T14:28:33.583Z,82.31
2018-02-23T14:29:43.049Z,82.54
2018-02-23T14:30:53.048Z,83.02
2018-02-23T14:32:03.050Z,83.78
2018-02-23T14:33:13.053Z,84.53
2018-02-23T14:34:22.795Z,85.28
2018-02-23T14:35:32.258Z,85.19
2018-02-23T14:36:41.989Z,85.57
2018-02-23T14:37:51.989Z,85.66
2018-02-23T14:39:02.026Z,86.14
2018-02-23T14:40:12.028Z,86.1
2018-02-23T14:41:22.025Z,86.57
2018-02-23T14:42:32.023Z,87.7
2018-02-23T14:43:41.590Z,88.27
2018-02-23T14:44:51.587Z,88.46
2018-02-23T14:46:01.319Z,87.23
2018-02-23T14:47:11.057Z,85.34
2018-02-23T14:48:21.053Z,84.77
2018-02-23T14:49:30.792Z,84.96
2018-02-23T14:50:40.522Z,84.96
2018-02-23T14:51:50.252Z,85.34
2018-02-23T14:53:00.250Z,85.15
2018-02-23T14:54:10.256Z,85.24
2018-02-23T14:55:20.268Z,85.34
2018-02-23T14:56:29.726Z,85.91
2018-02-23T14:57:39.723Z,86.38
2018-02-23T14:58:49.186Z,86.76
2018-02-23T14:59:59.199Z,86.66
2018-02-23T15:01:09.205Z,86.66
2018-02-23T15:02:19.198Z,86.76
2018-02-23T15:03:28.928Z,86.57
2018-02-23T15:04:38.925Z,85.91